Time;durP1;ratioP1;P1;durP2;ratioP2;P2;SDS_P1;SDS_P2;PMS_P1;PMS_P2;Temp;Humidity;BMP_temperature;BMP_pressure;BME280_temperature;BME280_humidity;BME280_pressure;Samples;Min_cycle;Max_cycle;Signal;HPM_P1;HPM_P2
2023/09/07 00:01:45;;;;;;;5.65;3.60;;;;;;;;;;4965710;28;20033;-86
2023/09/07 00:04:10;;;;;;;4.47;3.50;;;;;;;;;;4966064;28;20121;-86
2023/09/07 00:06:36;;;;;;;5.18;3.22;;;;;;;;;;4963602;28;20034;-86
2023/09/07 00:09:05;;;;;;;5.50;3.67;;;;;;;;;;4984129;28;20022;-86
2023/09/07 00:11:32;;;;;;;6.13;3.50;;;;;;;;;;4982089;28;20471;-86
2023/09/07 00:13:59;;;;;;;19.63;3.35;;;;;;;;;;4964698;28;20030;-85
2023/09/07 00:16:24;;;;;;;7.53;4.07;;;;;;;;;;4981691;28;20058;-82
2023/09/07 00:18:50;;;;;;;4.55;3.40;;;;;;;;;;4964119;28;20398;-83
2023/09/07 00:21:16;;;;;;;5.85;3.58;;;;;;;;;;4970507;28;20022;-83
2023/09/07 00:23:41;;;;;;;5.25;3.47;;;;;;;;;;4983210;28;20022;-82
2023/09/07 00:26:07;;;;;;;5.43;3.60;;;;;;;;;;4960044;28;20473;-83
2023/09/07 00:28:32;;;;;;;4.70;3.42;;;;;;;;;;4967072;28;20482;-83
2023/09/07 00:30:57;;;;;;;5.80;3.45;;;;;;;;;;4982111;28;20550;-82
2023/09/07 00:33:23;;;;;;;5.95;3.45;;;;;;;;;;4985413;28;20022;-83
2023/09/07 00:35:48;;;;;;;6.45;3.45;;;;;;;;;;4988148;28;20030;-83
2023/09/07 00:38:13;;;;;;;6.35;3.80;;;;;;;;;;4980749;28;20465;-83
2023/09/07 00:40:44;;;;;;;5.78;3.83;;;;;;;;;;4966265;28;20632;-85
2023/09/07 00:43:09;;;;;;;5.50;3.67;;;;;;;;;;4969234;28;20022;-85
2023/09/07 00:45:34;;;;;;;4.88;3.65;;;;;;;;;;4969779;28;20023;-84
2023/09/07 00:48:00;;;;;;;5.97;3.63;;;;;;;;;;4968575;28;20176;-86
2023/09/07 00:50:25;;;;;;;4.97;3.35;;;;;;;;;;4970016;28;20041;-84
2023/09/07 00:52:51;;;;;;;6.97;4.00;;;;;;;;;;4965819;28;20030;-86
2023/09/07 00:55:17;;;;;;;5.78;3.92;;;;;;;;;;4983367;28;20057;-85
2023/09/07 00:57:42;;;;;;;6.00;4.18;;;;;;;;;;4969284;28;20030;-86
2023/09/07 01:00:09;;;;;;;7.10;3.85;;;;;;;;;;4980509;28;20028;-85
2023/09/07 01:02:34;;;;;;;5.65;4.10;;;;;;;;;;4968634;28;20505;-85
2023/09/07 01:05:03;;;;;;;5.85;4.10;;;;;;;;;;4964073;28;20026;-86
2023/09/07 01:08:02;;;;;;;5.25;4.00;;;;;;;;;;4981928;28;20026;-86
2023/09/07 01:10:28;;;;;;;5.50;4.05;;;;;;;;;;4945310;28;20513;-85
2023/09/07 01:12:53;;;;;;;6.20;3.67;;;;;;;;;;4981942;28;20069;-86
2023/09/07 01:15:19;;;;;;;6.00;4.13;;;;;;;;;;4969631;28;20386;-86
2023/09/07 01:17:45;;;;;;;5.72;4.43;;;;;;;;;;4983367;28;20054;-86
2023/09/07 01:20:13;;;;;;;5.40;4.05;;;;;;;;;;4984845;28;20474;-86
2023/09/07 01:22:39;;;;;;;6.25;4.32;;;;;;;;;;4965113;28;20114;-85
2023/09/07 01:25:06;;;;;;;6.25;4.10;;;;;;;;;;4985462;28;20106;-85
2023/09/07 01:27:33;;;;;;;7.47;4.35;;;;;;;;;;4988263;28;20798;-79
2023/09/07 01:29:58;;;;;;;6.45;3.97;;;;;;;;;;4978943;28;20125;-80
2023/09/07 01:32:24;;;;;;;6.85;3.97;;;;;;;;;;4990688;28;20541;-79
2023/09/07 01:34:50;;;;;;;7.18;5.18;;;;;;;;;;4975917;28;20022;-80
2023/09/07 01:37:15;;;;;;;7.53;4.57;;;;;;;;;;4990734;28;20025;-79
2023/09/07 01:39:40;;;;;;;7.57;4.45;;;;;;;;;;4993035;28;20030;-80
2023/09/07 01:42:06;;;;;;;6.50;4.55;;;;;;;;;;4974111;28;20387;-79
2023/09/07 01:44:31;;;;;;;6.13;4.85;;;;;;;;;;4991541;28;20030;-79
2023/09/07 01:46:56;;;;;;;7.85;4.68;;;;;;;;;;4974238;28;20038;-79
2023/09/07 01:49:22;;;;;;;7.18;4.57;;;;;;;;;;4978558;28;20030;-79
2023/09/07 01:51:47;;;;;;;6.35;4.60;;;;;;;;;;4987216;28;20037;-80
2023/09/07 01:54:12;;;;;;;6.60;4.43;;;;;;;;;;4978182;28;20048;-79
2023/09/07 01:56:40;;;;;;;7.97;4.95;;;;;;;;;;5007961;28;20100;-79
2023/09/07 01:59:06;;;;;;;6.47;4.70;;;;;;;;;;5002814;28;20452;-80
2023/09/07 02:01:34;;;;;;;7.05;4.78;;;;;;;;;;4986944;28;20018;-81
2023/09/07 02:03:59;;;;;;;5.93;4.80;;;;;;;;;;4989699;28;20032;-80
2023/09/07 02:06:24;;;;;;;7.65;5.10;;;;;;;;;;5009497;28;20037;-79
2023/09/07 02:08:50;;;;;;;6.25;4.68;;;;;;;;;;4989257;28;20030;-79
2023/09/07 02:11:15;;;;;;;8.30;4.78;;;;;;;;;;5010062;28;20022;-80
2023/09/07 02:13:46;;;;;;;7.55;5.15;;;;;;;;;;4993059;28;20014;-79
2023/09/07 02:16:11;;;;;;;7.55;5.10;;;;;;;;;;5003541;28;20514;-80
2023/09/07 02:18:43;;;;;;;7.45;4.90;;;;;;;;;;5003394;28;20057;-79
2023/09/07 02:21:09;;;;;;;8.30;5.70;;;;;;;;;;4987242;28;20030;-80
2023/09/07 02:23:36;;;;;;;7.10;5.72;;;;;;;;;;5007651;28;20109;-82
2023/09/07 02:26:02;;;;;;;7.72;6.05;;;;;;;;;;5003257;28;20030;-83
2023/09/07 02:28:27;;;;;;;8.10;5.40;;;;;;;;;;4980152;28;20088;-80
2023/09/07 02:30:53;;;;;;;8.38;5.45;;;;;;;;;;5003377;28;20626;-85
2023/09/07 02:33:18;;;;;;;10.50;5.55;;;;;;;;;;4983870;28;20030;-85
2023/09/07 02:35:44;;;;;;;8.43;5.47;;;;;;;;;;4989660;28;20424;-85
2023/09/07 02:38:09;;;;;;;6.97;4.95;;;;;;;;;;5000423;28;20453;-85
2023/09/07 02:40:42;;;;;;;8.40;5.10;;;;;;;;;;4986289;28;20048;-86
2023/09/07 02:43:08;;;;;;;7.13;5.32;;;;;;;;;;4985134;28;20560;-84
2023/09/07 02:45:34;;;;;;;8.95;5.38;;;;;;;;;;4992892;28;20029;-86
2023/09/07 02:47:59;;;;;;;9.05;5.70;;;;;;;;;;4994773;28;20087;-86
2023/09/07 02:50:24;;;;;;;7.85;5.80;;;;;;;;;;4990943;28;20029;-86
2023/09/07 02:52:50;;;;;;;8.05;4.97;;;;;;;;;;4988988;28;20038;-86
2023/09/07 02:55:15;;;;;;;8.05;6.00;;;;;;;;;;4986242;28;20026;-85
2023/09/07 02:57:40;;;;;;;6.80;5.20;;;;;;;;;;4984229;28;20060;-86
2023/09/07 03:00:09;;;;;;;7.25;5.20;;;;;;;;;;5003309;28;20109;-85
2023/09/07 03:02:35;;;;;;;7.82;5.32;;;;;;;;;;4991162;28;20021;-85
2023/09/07 03:05:01;;;;;;;8.77;5.53;;;;;;;;;;4984308;28;20041;-85
2023/09/07 03:07:26;;;;;;;6.93;5.40;;;;;;;;;;5004522;28;20038;-85
2023/09/07 03:09:52;;;;;;;7.15;5.00;;;;;;;;;;4997754;28;20040;-85
2023/09/07 03:12:18;;;;;;;7.40;5.13;;;;;;;;;;5003034;28;20114;-85
2023/09/07 03:14:44;;;;;;;7.28;4.97;;;;;;;;;;4983908;28;20109;-85
2023/09/07 03:17:09;;;;;;;7.03;5.25;;;;;;;;;;4998924;28;20552;-84
2023/09/07 03:19:37;;;;;;;7.13;5.20;;;;;;;;;;4984921;28;20026;-85
2023/09/07 03:22:03;;;;;;;7.50;5.38;;;;;;;;;;4985012;28;20030;-86
2023/09/07 03:24:28;;;;;;;7.63;4.93;;;;;;;;;;4981039;28;20030;-86
2023/09/07 03:26:54;;;;;;;7.03;5.68;;;;;;;;;;5006252;28;20371;-85
2023/09/07 03:29:19;;;;;;;6.95;5.28;;;;;;;;;;4979576;28;20030;-86
2023/09/07 03:31:45;;;;;;;7.13;4.95;;;;;;;;;;4998200;28;20970;-85
2023/09/07 03:34:10;;;;;;;7.95;5.63;;;;;;;;;;4999374;28;20029;-84
2023/09/07 03:36:36;;;;;;;8.00;5.30;;;;;;;;;;4995397;28;20025;-83
2023/09/07 03:39:01;;;;;;;7.97;5.45;;;;;;;;;;4980652;28;20092;-82
2023/09/07 03:41:30;;;;;;;11.73;5.28;;;;;;;;;;4976577;28;20033;-83
2023/09/07 03:43:56;;;;;;;6.97;4.75;;;;;;;;;;4981138;28;20033;-82
2023/09/07 03:46:21;;;;;;;9.65;5.88;;;;;;;;;;4996074;28;20468;-82
2023/09/07 03:48:46;;;;;;;6.20;4.85;;;;;;;;;;4998983;28;21165;-83
2023/09/07 03:51:13;;;;;;;9.75;5.30;;;;;;;;;;4999385;28;20394;-83
2023/09/07 03:53:38;;;;;;;7.22;5.22;;;;;;;;;;4998375;28;20424;-83
2023/09/07 03:56:04;;;;;;;7.75;5.07;;;;;;;;;;4962554;28;20026;-83
2023/09/07 03:58:29;;;;;;;7.72;5.20;;;;;;;;;;4979186;28;20026;-82
2023/09/07 04:00:54;;;;;;;7.97;5.13;;;;;;;;;;4959348;28;20053;-82
2023/09/07 04:03:20;;;;;;;7.38;4.60;;;;;;;;;;4958644;28;20029;-82
2023/09/07 04:05:45;;;;;;;9.88;6.15;;;;;;;;;;4981508;28;20045;-83
2023/09/07 04:08:10;;;;;;;7.55;5.20;;;;;;;;;;4961853;28;20026;-85
2023/09/07 04:10:39;;;;;;;8.38;5.68;;;;;;;;;;4960291;28;20035;-84
2023/09/07 04:13:05;;;;;;;7.15;5.30;;;;;;;;;;4958896;28;20035;-85
2023/09/07 04:15:31;;;;;;;7.93;5.30;;;;;;;;;;4980859;28;20092;-84
2023/09/07 04:17:56;;;;;;;7.40;5.45;;;;;;;;;;4962315;28;20026;-85
2023/09/07 04:20:22;;;;;;;8.32;5.78;;;;;;;;;;4963228;28;20124;-85
2023/09/07 04:22:47;;;;;;;9.85;5.93;;;;;;;;;;4974943;28;20030;-83
2023/09/07 04:25:13;;;;;;;8.90;5.38;;;;;;;;;;4962510;28;20566;-82
2023/09/07 04:27:38;;;;;;;7.93;5.90;;;;;;;;;;4957862;28;20026;-83
2023/09/07 04:30:04;;;;;;;7.63;5.95;;;;;;;;;;4961951;28;20426;-83
2023/09/07 04:32:29;;;;;;;7.03;5.15;;;;;;;;;;4979078;28;20069;-82
2023/09/07 04:34:56;;;;;;;7.60;5.40;;;;;;;;;;4979610;28;20394;-83
2023/09/07 04:37:22;;;;;;;8.65;5.70;;;;;;;;;;4984846;28;20367;-83
2023/09/07 04:39:52;;;;;;;8.68;5.47;;;;;;;;;;4966991;28;20492;-82
2023/09/07 04:42:17;;;;;;;7.18;4.88;;;;;;;;;;4961401;28;20481;-83
2023/09/07 04:44:42;;;;;;;7.97;5.50;;;;;;;;;;4979001;28;20034;-83
2023/09/07 04:47:07;;;;;;;10.27;5.50;;;;;;;;;;4978898;28;20031;-82
2023/09/07 04:49:33;;;;;;;9.25;5.70;;;;;;;;;;4979156;28;20037;-82
2023/09/07 04:51:59;;;;;;;9.43;5.82;;;;;;;;;;4961381;28;20266;-83
2023/09/07 04:54:24;;;;;;;8.80;5.70;;;;;;;;;;4981135;28;20086;-85
2023/09/07 04:56:50;;;;;;;9.38;5.88;;;;;;;;;;4983470;28;20115;-85
2023/09/07 04:59:15;;;;;;;7.68;5.30;;;;;;;;;;4968366;28;20030;-85
2023/09/07 05:01:41;;;;;;;7.68;6.03;;;;;;;;;;4966607;28;20478;-85
2023/09/07 05:04:06;;;;;;;9.27;5.60;;;;;;;;;;4971034;28;20600;-80
2023/09/07 05:06:36;;;;;;;8.35;5.57;;;;;;;;;;4986587;28;20026;-82
2023/09/07 05:09:02;;;;;;;6.32;5.00;;;;;;;;;;4972144;28;20478;-80
2023/09/07 05:11:28;;;;;;;7.72;5.18;;;;;;;;;;4967480;28;20446;-80
2023/09/07 05:13:53;;;;;;;6.53;5.15;;;;;;;;;;4968094;28;20164;-82
2023/09/07 05:16:18;;;;;;;8.68;6.20;;;;;;;;;;4989333;28;20106;-81
2023/09/07 05:18:44;;;;;;;9.23;5.57;;;;;;;;;;4969557;28;20078;-84
2023/09/07 05:21:16;;;;;;;7.18;5.30;;;;;;;;;;4974272;28;20069;-84
2023/09/07 05:23:42;;;;;;;7.85;5.90;;;;;;;;;;4968227;28;20029;-84
2023/09/07 05:26:07;;;;;;;8.75;5.85;;;;;;;;;;4988493;28;20033;-85
2023/09/07 05:28:32;;;;;;;9.65;5.70;;;;;;;;;;4988925;28;20030;-86
2023/09/07 05:30:58;;;;;;;9.80;5.65;;;;;;;;;;4962539;28;20026;-84
2023/09/07 05:33:23;;;;;;;7.75;5.40;;;;;;;;;;4965270;28;20729;-85
2023/09/07 05:36:23;;;;;;;8.05;5.78;;;;;;;;;;4986581;28;20030;-85
2023/09/07 05:38:48;;;;;;;9.13;5.38;;;;;;;;;;4982843;28;20050;-85
2023/09/07 05:41:14;;;;;;;7.93;5.28;;;;;;;;;;4966579;28;20712;-85
2023/09/07 05:43:39;;;;;;;9.52;5.22;;;;;;;;;;4989474;28;20177;-84
2023/09/07 05:46:05;;;;;;;7.20;5.80;;;;;;;;;;4968138;28;20052;-85
2023/09/07 05:48:30;;;;;;;7.68;5.47;;;;;;;;;;4968619;28;20030;-84
2023/09/07 05:50:55;;;;;;;7.65;5.28;;;;;;;;;;4983858;28;20379;-83
2023/09/07 05:53:21;;;;;;;8.90;5.68;;;;;;;;;;4981543;28;20022;-84
2023/09/07 05:55:46;;;;;;;7.68;5.13;;;;;;;;;;4981202;28;20660;-85
2023/09/07 05:58:12;;;;;;;7.90;5.38;;;;;;;;;;4967924;28;20053;-84
2023/09/07 06:00:39;;;;;;;7.45;5.15;;;;;;;;;;4986845;28;20029;-84
2023/09/07 06:03:05;;;;;;;8.20;5.18;;;;;;;;;;4983717;28;20026;-83
2023/09/07 06:05:35;;;;;;;7.82;5.70;;;;;;;;;;4962610;28;20121;-84
2023/09/07 06:08:00;;;;;;;11.23;5.68;;;;;;;;;;4985879;28;20035;-84
2023/09/07 06:10:28;;;;;;;8.25;5.70;;;;;;;;;;4966472;28;20037;-84
2023/09/07 06:12:53;;;;;;;9.48;6.10;;;;;;;;;;4980214;28;20041;-83
2023/09/07 06:15:19;;;;;;;6.90;5.53;;;;;;;;;;4964580;28;20026;-83
2023/09/07 06:17:47;;;;;;;8.13;5.55;;;;;;;;;;4965213;28;20108;-83
2023/09/07 06:20:13;;;;;;;9.55;6.32;;;;;;;;;;4958946;28;20422;-84
2023/09/07 06:22:38;;;;;;;7.32;5.22;;;;;;;;;;4965394;28;20030;-84
2023/09/07 06:25:04;;;;;;;9.15;6.15;;;;;;;;;;4963088;28;20076;-87
2023/09/07 06:27:29;;;;;;;8.30;5.70;;;;;;;;;;4963474;28;20045;-87
2023/09/07 06:29:55;;;;;;;8.30;5.80;;;;;;;;;;4978140;28;20029;-87
2023/09/07 06:32:23;;;;;;;11.43;5.80;;;;;;;;;;4981916;28;20096;-87
2023/09/07 06:34:48;;;;;;;9.55;6.35;;;;;;;;;;4963952;28;20026;-86
2023/09/07 06:37:14;;;;;;;11.75;6.82;;;;;;;;;;4962704;28;20093;-86
2023/09/07 06:39:42;;;;;;;8.50;6.32;;;;;;;;;;4967697;28;20081;-86
2023/09/07 06:42:08;;;;;;;8.40;6.38;;;;;;;;;;4965551;28;20049;-87
2023/09/07 06:44:34;;;;;;;8.35;6.30;;;;;;;;;;4965028;28;20038;-86
2023/09/07 06:46:59;;;;;;;12.77;6.07;;;;;;;;;;4981109;28;20120;-87
2023/09/07 06:49:25;;;;;;;10.98;6.45;;;;;;;;;;4966570;28;20144;-88
2023/09/07 06:51:50;;;;;;;11.40;6.35;;;;;;;;;;4980820;28;20027;-86
2023/09/07 06:54:15;;;;;;;9.38;6.35;;;;;;;;;;4926490;28;1076072;-86
2023/09/07 06:56:41;;;;;;;7.47;6.25;;;;;;;;;;4986261;28;20389;-87
2023/09/07 06:59:06;;;;;;;9.38;6.50;;;;;;;;;;4988773;28;20034;-88
2023/09/07 07:01:31;;;;;;;8.32;6.25;;;;;;;;;;4964545;28;20066;-87
2023/09/07 07:03:57;;;;;;;8.93;6.05;;;;;;;;;;4966834;28;20433;-86
2023/09/07 07:06:24;;;;;;;9.25;6.10;;;;;;;;;;4970182;28;20022;-86
2023/09/07 07:08:49;;;;;;;8.13;5.93;;;;;;;;;;4985934;28;20725;-86
2023/09/07 07:11:14;;;;;;;10.85;6.25;;;;;;;;;;4972847;28;20026;-88
2023/09/07 07:13:46;;;;;;;9.07;5.80;;;;;;;;;;4972780;28;20018;-83
2023/09/07 07:16:11;;;;;;;8.98;5.70;;;;;;;;;;4975154;28;20066;-83
2023/09/07 07:18:40;;;;;;;9.20;6.07;;;;;;;;;;4968603;28;20061;-84
2023/09/07 07:21:05;;;;;;;6.80;5.30;;;;;;;;;;4961529;28;20412;-83
2023/09/07 07:23:36;;;;;;;10.60;5.80;;;;;;;;;;4985624;28;20068;-83
2023/09/07 07:26:02;;;;;;;8.27;5.35;;;;;;;;;;4954127;28;20040;-86
2023/09/07 07:28:27;;;;;;;8.98;5.47;;;;;;;;;;4990034;28;20030;-86
2023/09/07 07:30:53;;;;;;;7.88;5.15;;;;;;;;;;4972469;28;20033;-86
2023/09/07 07:33:19;;;;;;;6.90;5.00;;;;;;;;;;4974201;28;20085;-86
2023/09/07 07:35:45;;;;;;;8.63;5.22;;;;;;;;;;4972552;28;20538;-86
2023/09/07 07:38:13;;;;;;;8.00;4.93;;;;;;;;;;4992312;28;20033;-86
2023/09/07 07:40:38;;;;;;;6.30;4.60;;;;;;;;;;4970668;28;20414;-86
2023/09/07 07:43:04;;;;;;;8.23;4.80;;;;;;;;;;4967561;28;20026;-86
2023/09/07 07:45:29;;;;;;;7.10;4.70;;;;;;;;;;4965399;28;20018;-86
2023/09/07 07:47:55;;;;;;;8.65;4.40;;;;;;;;;;4989944;28;20037;-86
2023/09/07 07:50:20;;;;;;;7.45;4.68;;;;;;;;;;4974592;28;20033;-86
2023/09/07 07:52:45;;;;;;;7.03;4.03;;;;;;;;;;4975631;28;21556;-86
2023/09/07 07:55:12;;;;;;;5.78;4.07;;;;;;;;;;4988333;28;20030;-86
2023/09/07 07:57:37;;;;;;;7.03;4.03;;;;;;;;;;4986460;28;20028;-86
2023/09/07 08:00:04;;;;;;;8.45;3.60;;;;;;;;;;4981413;28;20386;-87
2023/09/07 08:02:30;;;;;;;8.32;3.83;;;;;;;;;;4971646;28;20022;-86
2023/09/07 08:04:55;;;;;;;5.82;4.10;;;;;;;;;;4962630;28;20031;-85
2023/09/07 08:07:21;;;;;;;7.47;3.72;;;;;;;;;;4973516;28;20474;-86
2023/09/07 08:09:47;;;;;;;8.85;3.88;;;;;;;;;;4969053;28;20026;-87
2023/09/07 08:12:12;;;;;;;6.57;3.80;;;;;;;;;;4959653;28;20023;-89
2023/09/07 08:14:38;;;;;;;6.70;3.88;;;;;;;;;;4986587;28;20022;-90
2023/09/07 08:17:03;;;;;;;6.35;4.00;;;;;;;;;;4992932;28;20110;-90
2023/09/07 08:19:29;;;;;;;7.65;4.15;;;;;;;;;;4991173;28;20030;-90
2023/09/07 08:21:55;;;;;;;7.97;4.00;;;;;;;;;;4970343;28;20038;-89
2023/09/07 08:24:20;;;;;;;9.18;3.78;;;;;;;;;;4973213;28;20033;-88
2023/09/07 08:26:45;;;;;;;5.60;3.83;;;;;;;;;;4974281;28;20106;-88
2023/09/07 08:29:11;;;;;;;5.93;3.95;;;;;;;;;;4974591;28;20032;-90
2023/09/07 08:31:40;;;;;;;8.25;3.60;;;;;;;;;;4977773;28;20034;-90
2023/09/07 08:34:09;;;;;;;9.55;3.88;;;;;;;;;;4973629;28;20022;-87
2023/09/07 08:36:34;;;;;;;9.18;4.15;;;;;;;;;;4995265;28;20041;-87
2023/09/07 08:39:09;;;;;;;8.20;3.88;;;;;;;;;;4987353;28;20026;-87
2023/09/07 08:41:44;;;;;;;7.45;4.10;;;;;;;;;;4990742;28;20030;-88
2023/09/07 08:44:17;;;;;;;5.80;3.70;;;;;;;;;;4967158;28;20037;-87
2023/09/07 08:46:43;;;;;;;7.45;3.90;;;;;;;;;;4974146;28;20081;-87
2023/09/07 08:49:11;;;;;;;7.80;3.65;;;;;;;;;;4972241;28;20034;-87
2023/09/07 08:51:37;;;;;;;6.82;3.53;;;;;;;;;;4972622;28;20117;-85
2023/09/07 08:54:07;;;;;;;5.38;3.63;;;;;;;;;;4970914;28;20029;-84
2023/09/07 08:56:32;;;;;;;6.65;3.78;;;;;;;;;;4993775;28;20202;-85
2023/09/07 08:58:57;;;;;;;5.65;3.80;;;;;;;;;;4991840;28;20125;-85
2023/09/07 09:01:23;;;;;;;6.80;3.72;;;;;;;;;;5006022;28;20033;-85
2023/09/07 09:03:49;;;;;;;5.97;3.35;;;;;;;;;;5006831;28;20041;-85
2023/09/07 09:06:18;;;;;;;7.40;3.60;;;;;;;;;;4989918;28;20136;-85
2023/09/07 09:08:44;;;;;;;5.93;3.63;;;;;;;;;;4991964;28;20033;-85
2023/09/07 09:11:10;;;;;;;5.40;3.40;;;;;;;;;;5009073;28;20038;-85
2023/09/07 09:13:36;;;;;;;4.88;3.03;;;;;;;;;;4994984;28;20030;-86
2023/09/07 09:16:02;;;;;;;7.20;3.55;;;;;;;;;;4992362;28;20118;-85
2023/09/07 09:18:28;;;;;;;5.45;3.22;;;;;;;;;;5002189;28;20401;-85
2023/09/07 09:20:58;;;;;;;5.93;3.33;;;;;;;;;;4994984;28;20029;-85
2023/09/07 09:23:24;;;;;;;5.25;3.55;;;;;;;;;;5005766;28;20036;-85
2023/09/07 09:25:51;;;;;;;5.65;3.60;;;;;;;;;;4997070;28;20029;-85
2023/09/07 09:28:16;;;;;;;5.50;3.10;;;;;;;;;;5000105;28;20385;-85
2023/09/07 09:30:44;;;;;;;4.97;3.30;;;;;;;;;;4997881;28;20190;-85
2023/09/07 09:33:10;;;;;;;5.22;3.33;;;;;;;;;;4990196;28;20057;-85
2023/09/07 09:35:38;;;;;;;4.63;3.20;;;;;;;;;;5001055;28;20033;-82
2023/09/07 09:38:04;;;;;;;7.22;3.65;;;;;;;;;;4985225;28;20018;-86
2023/09/07 09:40:30;;;;;;;5.10;3.50;;;;;;;;;;5006048;28;20076;-86
2023/09/07 09:42:57;;;;;;;5.18;3.80;;;;;;;;;;5003777;28;20058;-86
2023/09/07 09:45:25;;;;;;;9.27;4.22;;;;;;;;;;4985102;28;20033;-85
2023/09/07 09:47:51;;;;;;;5.30;3.30;;;;;;;;;;5011877;28;20025;-86
2023/09/07 09:50:18;;;;;;;7.18;3.92;;;;;;;;;;4996708;28;20038;-88
2023/09/07 09:52:45;;;;;;;4.60;3.40;;;;;;;;;;5011692;28;20026;-88
2023/09/07 09:55:12;;;;;;;7.03;3.67;;;;;;;;;;4974194;28;20096;-87
2023/09/07 09:57:38;;;;;;;6.50;3.35;;;;;;;;;;4992238;28;20375;-88
2023/09/07 10:00:48;;;;;;;7.38;3.70;;;;;;;;;;4991424;28;20034;-88
2023/09/07 10:03:05;;;;;;;5.15;3.20;;;;;;;;;;4975855;28;20042;-87
2023/09/07 10:05:32;;;;;;;7.45;3.50;;;;;;;;;;4974529;28;20538;-88
2023/09/07 10:08:11;;;;;;;6.00;3.38;;;;;;;;;;4990210;28;20046;-87
2023/09/07 10:10:37;;;;;;;5.32;3.50;;;;;;;;;;4990282;28;20600;-87
2023/09/07 10:13:03;;;;;;;6.35;3.47;;;;;;;;;;4971080;28;20030;-88
2023/09/07 10:15:29;;;;;;;4.75;3.03;;;;;;;;;;4985936;28;20026;-88
2023/09/07 10:18:15;;;;;;;5.57;3.55;;;;;;;;;;4966934;28;20035;-87
2023/09/07 10:20:58;;;;;;;5.03;3.10;;;;;;;;;;4974455;28;20023;-86
2023/09/07 10:23:34;;;;;;;;;;;;;;;;;;4978729;28;20037;-89
2023/09/07 10:25:59;;;;;;;5.22;3.10;;;;;;;;;;4990460;28;19971;-85
2023/09/07 10:28:25;;;;;;;5.30;3.00;;;;;;;;;;4993948;28;20053;-85
2023/09/07 10:31:12;;;;;;;5.88;2.95;;;;;;;;;;4990393;28;20495;-85
2023/09/07 10:33:38;;;;;;;7.68;3.03;;;;;;;;;;4989968;28;20089;-85
2023/09/07 10:36:05;;;;;;;5.97;3.20;;;;;;;;;;4975921;28;20482;-84
2023/09/07 10:38:32;;;;;;;4.40;3.20;;;;;;;;;;4978612;28;20096;-84
2023/09/07 10:40:59;;;;;;;5.28;3.50;;;;;;;;;;4988162;28;20475;-86
2023/09/07 10:43:26;;;;;;;4.40;3.17;;;;;;;;;;4952417;28;20041;-86
2023/09/07 10:45:56;;;;;;;4.38;3.20;;;;;;;;;;4986213;28;20489;-82
2023/09/07 10:48:22;;;;;;;4.93;3.10;;;;;;;;;;4970895;28;20026;-82
2023/09/07 10:50:51;;;;;;;6.90;3.30;;;;;;;;;;4985913;28;20092;-83
2023/09/07 10:53:27;;;;;;;4.78;3.10;;;;;;;;;;4990789;28;20343;-82
2023/09/07 10:55:54;;;;;;;4.22;2.78;;;;;;;;;;4969043;28;20038;-90
2023/09/07 10:58:39;;;;;;;4.53;3.10;;;;;;;;;;4970198;28;20113;-89
2023/09/07 11:01:05;;;;;;;5.13;3.00;;;;;;;;;;4965204;28;20113;-89
2023/09/07 11:03:31;;;;;;;5.00;2.97;;;;;;;;;;4999266;28;20562;-90
2023/09/07 11:06:14;;;;;;;5.30;2.90;;;;;;;;;;4971826;28;20037;-83
2023/09/07 11:08:39;;;;;;;4.70;2.80;;;;;;;;;;4984769;28;20045;-82
2023/09/07 11:11:05;;;;;;;3.85;2.70;;;;;;;;;;4967553;28;20022;-84
2023/09/07 11:13:30;;;;;;;4.20;3.03;;;;;;;;;;4967226;28;20045;-82
2023/09/07 11:15:57;;;;;;;3.72;2.97;;;;;;;;;;4969658;28;20027;-83
2023/09/07 11:18:23;;;;;;;4.05;3.00;;;;;;;;;;4966567;28;20041;-83
2023/09/07 11:20:50;;;;;;;8.13;3.38;;;;;;;;;;4968248;28;20080;-83
2023/09/07 11:23:18;;;;;;;4.97;3.20;;;;;;;;;;4969686;28;20439;-85
2023/09/07 11:25:43;;;;;;;5.50;3.10;;;;;;;;;;4968007;28;20037;-83
2023/09/07 11:28:11;;;;;;;4.43;3.03;;;;;;;;;;4980023;28;20022;-83
2023/09/07 11:30:37;;;;;;;5.45;2.95;;;;;;;;;;4987768;28;20110;-82
2023/09/07 11:33:02;;;;;;;4.50;3.10;;;;;;;;;;4973788;28;20685;-83
2023/09/07 11:35:27;;;;;;;4.80;3.20;;;;;;;;;;4972678;28;20018;-88
2023/09/07 11:37:53;;;;;;;4.93;3.22;;;;;;;;;;4994952;28;20478;-89
2023/09/07 11:40:19;;;;;;;5.85;3.20;;;;;;;;;;4970820;28;20026;-90
2023/09/07 11:42:44;;;;;;;6.30;3.38;;;;;;;;;;4995803;28;20457;-90
2023/09/07 11:45:10;;;;;;;5.68;3.22;;;;;;;;;;4990155;28;20030;-89
2023/09/07 11:47:35;;;;;;;5.43;3.20;;;;;;;;;;4979386;28;20030;-90
2023/09/07 11:50:01;;;;;;;4.60;3.53;;;;;;;;;;4971114;28;20053;-89
2023/09/07 11:52:26;;;;;;;4.95;3.00;;;;;;;;;;4987348;28;20076;-89
2023/09/07 11:54:51;;;;;;;7.22;3.38;;;;;;;;;;4985073;28;20474;-86
2023/09/07 11:57:17;;;;;;;5.35;3.50;;;;;;;;;;4972190;28;20117;-88
2023/09/07 11:59:42;;;;;;;5.57;3.45;;;;;;;;;;4969047;28;20041;-86
2023/09/07 12:02:11;;;;;;;4.80;3.00;;;;;;;;;;4977402;28;20105;-82
2023/09/07 12:04:37;;;;;;;5.68;3.47;;;;;;;;;;4990200;28;20034;-83
2023/09/07 12:07:03;;;;;;;5.65;3.20;;;;;;;;;;4977613;28;20034;-83
2023/09/07 12:09:28;;;;;;;6.57;3.40;;;;;;;;;;4990843;28;20077;-83
2023/09/07 12:11:54;;;;;;;4.90;3.30;;;;;;;;;;4983271;28;20117;-83
2023/09/07 12:14:19;;;;;;;5.07;3.42;;;;;;;;;;4975236;28;20109;-87
2023/09/07 12:16:44;;;;;;;4.03;3.10;;;;;;;;;;4972880;28;20103;-88
2023/09/07 12:19:10;;;;;;;5.70;3.08;;;;;;;;;;4988950;28;20113;-88
2023/09/07 12:21:35;;;;;;;5.25;3.22;;;;;;;;;;4974318;28;20030;-88
2023/09/07 12:24:01;;;;;;;6.65;3.53;;;;;;;;;;4992730;28;20093;-87
2023/09/07 12:26:26;;;;;;;5.88;3.70;;;;;;;;;;4971096;28;20410;-88
2023/09/07 12:28:57;;;;;;;6.50;3.53;;;;;;;;;;4971983;28;20398;-87
2023/09/07 12:32:02;;;;;;;4.95;3.05;;;;;;;;;;4962522;28;20267;-88
2023/09/07 12:34:40;;;;;;;7.10;3.50;;;;;;;;;;4970598;28;20026;-87
2023/09/07 12:37:08;;;;;;;5.75;3.40;;;;;;;;;;4967096;28;20030;-89
2023/09/07 12:39:42;;;;;;;5.65;3.50;;;;;;;;;;4990097;28;20390;-89
2023/09/07 12:42:08;;;;;;;4.20;3.00;;;;;;;;;;4988764;28;20036;-83
2023/09/07 12:44:33;;;;;;;5.80;2.88;;;;;;;;;;4973418;28;20113;-82
2023/09/07 12:46:58;;;;;;;5.30;3.00;;;;;;;;;;4969242;28;20113;-83
2023/09/07 12:49:34;;;;;;;5.78;3.17;;;;;;;;;;4984812;28;20512;-83
2023/09/07 12:52:00;;;;;;;4.68;3.30;;;;;;;;;;4969613;28;20553;-83
2023/09/07 12:54:25;;;;;;;4.80;2.92;;;;;;;;;;4989253;28;20034;-83
2023/09/07 12:56:54;;;;;;;5.50;3.50;;;;;;;;;;4985413;28;20037;-83
2023/09/07 13:02:13;;;;;;;4.57;2.95;;;;;;;;;;4997024;28;20033;-83
2023/09/07 13:04:38;;;;;;;4.60;3.10;;;;;;;;;;4989830;28;20033;-83
2023/09/07 13:07:03;;;;;;;5.63;3.22;;;;;;;;;;4990128;28;20034;-83
2023/09/07 13:09:31;;;;;;;5.72;3.47;;;;;;;;;;4991183;28;20037;-83
2023/09/07 13:12:06;;;;;;;4.40;3.35;;;;;;;;;;4983418;28;20037;-87
2023/09/07 13:14:32;;;;;;;4.25;3.10;;;;;;;;;;5012715;28;20017;-89
2023/09/07 13:16:57;;;;;;;5.15;3.20;;;;;;;;;;4994112;28;20030;-87
2023/09/07 13:19:25;;;;;;;6.22;3.00;;;;;;;;;;5012186;28;20477;-88
2023/09/07 13:21:51;;;;;;;5.32;2.88;;;;;;;;;;4991425;28;20034;-87
2023/09/07 13:24:31;;;;;;;5.03;2.90;;;;;;;;;;4991610;28;20640;-83
2023/09/07 13:26:56;;;;;;;4.60;3.00;;;;;;;;;;4988545;28;20030;-83
2023/09/07 13:29:21;;;;;;;6.95;3.03;;;;;;;;;;5014252;28;20524;-83
2023/09/07 13:31:49;;;;;;;4.65;3.05;;;;;;;;;;5002491;28;20026;-83
2023/09/07 13:34:15;;;;;;;4.97;3.00;;;;;;;;;;5000758;28;20028;-83
2023/09/07 13:36:40;;;;;;;6.00;3.13;;;;;;;;;;4996381;28;20022;-83
2023/09/07 13:39:05;;;;;;;5.03;3.08;;;;;;;;;;5006064;28;20022;-83
2023/09/07 13:41:33;;;;;;;4.68;2.80;;;;;;;;;;4993919;28;20033;-82
2023/09/07 13:44:00;;;;;;;4.55;3.28;;;;;;;;;;4994491;28;20049;-83
2023/09/07 13:46:29;;;;;;;5.97;2.95;;;;;;;;;;4996338;28;20401;-83
2023/09/07 13:49:15;;;;;;;4.95;3.10;;;;;;;;;;4988969;28;20026;-84
2023/09/07 13:51:44;;;;;;;6.22;3.20;;;;;;;;;;4984990;28;20026;-84
2023/09/07 13:54:09;;;;;;;4.40;3.22;;;;;;;;;;4993588;28;20021;-83
2023/09/07 13:56:38;;;;;;;4.22;2.85;;;;;;;;;;4975722;28;20125;-84
2023/09/07 13:59:21;;;;;;;4.07;2.90;;;;;;;;;;4976007;28;20102;-83
2023/09/07 14:01:53;;;;;;;4.68;3.05;;;;;;;;;;4989709;28;20121;-83
2023/09/07 14:04:28;;;;;;;4.05;2.72;;;;;;;;;;4972871;28;20078;-84
2023/09/07 14:07:03;;;;;;;4.35;3.08;;;;;;;;;;4996176;28;20030;-83
2023/09/07 14:09:28;;;;;;;4.55;3.00;;;;;;;;;;4971249;28;20050;-83
2023/09/07 14:11:54;;;;;;;5.95;3.08;;;;;;;;;;4977607;28;20069;-83
2023/09/07 14:14:20;;;;;;;3.92;2.97;;;;;;;;;;4973562;28;20026;-84
2023/09/07 14:16:46;;;;;;;4.45;3.10;;;;;;;;;;4972883;28;20421;-84
2023/09/07 14:19:11;;;;;;;5.05;3.05;;;;;;;;;;4986937;28;21267;-83
2023/09/07 14:21:41;;;;;;;5.40;3.03;;;;;;;;;;4996359;28;20027;-83
2023/09/07 14:24:06;;;;;;;6.90;3.05;;;;;;;;;;4975754;28;20501;-83
2023/09/07 14:26:34;;;;;;;4.85;2.90;;;;;;;;;;4968056;28;20091;-83
2023/09/07 14:28:59;;;;;;;4.25;3.17;;;;;;;;;;4996313;28;20389;-84
2023/09/07 14:31:27;;;;;;;4.53;2.80;;;;;;;;;;4965051;28;20101;-86
2023/09/07 14:33:59;;;;;;;5.18;3.58;;;;;;;;;;4969670;28;20085;-88
2023/09/07 14:36:24;;;;;;;8.23;3.20;;;;;;;;;;4972123;28;20027;-88
2023/09/07 14:38:50;;;;;;;4.57;3.08;;;;;;;;;;4975356;28;20038;-88
2023/09/07 14:41:43;;;;;;;5.30;3.28;;;;;;;;;;4985839;28;20030;-87
2023/09/07 14:44:11;;;;;;;4.82;3.00;;;;;;;;;;4974110;28;20494;-88
2023/09/07 14:46:39;;;;;;;3.55;2.90;;;;;;;;;;4970741;28;20022;-87